Time;durP1;ratioP1;P1;durP2;ratioP2;P2;SDS_P1;SDS_P2;PMS_P1;PMS_P2;Temp;Humidity;BMP_temperature;BMP_pressure;BME280_temperature;BME280_humidity;BME280_pressure;Samples;Min_cycle;Max_cycle;Signal;HPM_P1;HPM_P2
2023/09/23 00:00:07;;;;;;;2.30;1.10;;;24.00;46.80;;;;;;5024339;28;21368;-61
2023/09/23 00:02:33;;;;;;;0.80;0.80;;;24.00;46.80;;;;;;5024810;28;20719;-62
2023/09/23 00:04:59;;;;;;;1.00;0.90;;;24.00;46.70;;;;;;5024074;28;20551;-66
2023/09/23 00:07:25;;;;;;;0.87;0.87;;;24.00;47.50;;;;;;5025658;28;20213;-68
2023/09/23 00:09:51;;;;;;;1.03;0.93;;;24.00;46.70;;;;;;5024804;28;20603;-65
2023/09/23 00:12:17;;;;;;;1.10;1.00;;;24.00;46.80;;;;;;5029303;28;20305;-69
2023/09/23 00:14:44;;;;;;;0.80;0.80;;;24.00;46.70;;;;;;5026224;28;20466;-65
2023/09/23 00:17:10;;;;;;;0.80;0.80;;;24.00;46.70;;;;;;5026251;28;20749;-61
2023/09/23 00:19:35;;;;;;;0.80;0.80;;;24.00;46.70;;;;;;5024230;28;20459;-60
2023/09/23 00:22:02;;;;;;;1.00;0.90;;;24.00;46.80;;;;;;5024100;28;20221;-69
2023/09/23 00:24:28;;;;;;;1.00;0.90;;;24.00;46.80;;;;;;5021911;28;20603;-61
2023/09/23 00:26:59;;;;;;;0.70;0.70;;;24.00;46.70;;;;;;5027017;28;20494;-61
2023/09/23 00:29:27;;;;;;;1.00;0.90;;;24.00;46.80;;;;;;5024826;28;21168;-67
2023/09/23 00:31:54;;;;;;;0.80;0.80;;;24.00;46.70;;;;;;5024394;28;20464;-60
2023/09/23 00:34:20;;;;;;;0.77;0.77;;;24.00;46.80;;;;;;5024365;28;20857;-66
2023/09/23 00:36:46;;;;;;;0.87;0.87;;;24.00;46.80;;;;;;5027775;28;20590;-64
2023/09/23 00:39:13;;;;;;;0.80;0.80;;;24.00;46.80;;;;;;5023275;28;20477;-60
2023/09/23 00:41:41;;;;;;;0.80;0.80;;;24.00;46.80;;;;;;5027128;28;23552;-61
2023/09/23 00:44:07;;;;;;;1.17;0.93;;;24.00;46.80;;;;;;5027878;28;20974;-63
2023/09/23 00:46:35;;;;;;;0.80;0.80;;;24.00;46.70;;;;;;5029800;28;20459;-63
2023/09/23 00:49:01;;;;;;;0.70;0.70;;;24.00;46.80;;;;;;5028557;28;20237;-61
2023/09/23 00:51:30;;;;;;;0.87;0.87;;;24.00;46.80;;;;;;5026228;28;21831;-67
2023/09/23 00:53:57;;;;;;;1.10;1.00;;;24.00;46.70;;;;;;5028048;28;21626;-60
2023/09/23 00:56:24;;;;;;;0.90;0.90;;;24.00;46.90;;;;;;5028260;28;20477;-62
2023/09/23 00:58:50;;;;;;;1.00;1.00;;;23.90;46.70;;;;;;5029734;28;20808;-62
2023/09/23 01:01:16;;;;;;;1.20;1.10;;;23.90;46.70;;;;;;5028477;28;20540;-60
2023/09/23 01:03:42;;;;;;;0.87;0.80;;;24.00;46.80;;;;;;5028883;28;20457;-66
2023/09/23 01:06:15;;;;;;;0.80;0.80;;;24.00;46.80;;;;;;5026186;28;20463;-60
2023/09/23 01:08:42;;;;;;;0.70;0.70;;;23.90;46.70;;;;;;5028428;28;20222;-68
2023/09/23 01:11:07;;;;;;;1.10;1.00;;;23.90;46.70;;;;;;5028038;28;20997;-63
2023/09/23 01:13:34;;;;;;;0.90;0.90;;;24.00;46.80;;;;;;5030936;28;20466;-61
2023/09/23 01:15:59;;;;;;;0.80;0.80;;;23.90;46.70;;;;;;5029629;28;20214;-61
2023/09/23 01:18:28;;;;;;;0.80;0.80;;;24.00;46.80;;;;;;5030731;28;21273;-63
2023/09/23 01:20:55;;;;;;;0.83;0.83;;;23.90;46.70;;;;;;5028504;28;20263;-61
2023/09/23 01:23:21;;;;;;;1.03;0.93;;;23.90;46.70;;;;;;5028961;28;20486;-60
2023/09/23 01:25:47;;;;;;;1.00;0.90;;;23.90;46.70;;;;;;5031843;28;20470;-69
2023/09/23 01:28:13;;;;;;;1.00;1.00;;;24.00;46.80;;;;;;5026500;28;20490;-65
2023/09/23 01:30:45;;;;;;;1.07;0.97;;;23.90;46.70;;;;;;5028246;28;20480;-66
2023/09/23 01:33:14;;;;;;;1.10;1.00;;;24.00;46.80;;;;;;5027623;28;20236;-60
2023/09/23 01:35:41;;;;;;;1.00;0.90;;;23.90;46.60;;;;;;5024898;28;20450;-67
2023/09/23 01:38:07;;;;;;;1.10;1.00;;;23.90;46.70;;;;;;5025533;28;20491;-66
2023/09/23 01:40:34;;;;;;;0.80;0.80;;;23.90;46.70;;;;;;5026856;28;20653;-60
2023/09/23 01:43:01;;;;;;;1.10;1.00;;;24.00;46.80;;;;;;5026857;28;20618;-68
2023/09/23 01:45:28;;;;;;;0.90;0.90;;;23.90;46.70;;;;;;5029538;28;20497;-64
2023/09/23 01:47:56;;;;;;;0.90;0.90;;;23.90;46.70;;;;;;5026555;28;20499;-64
2023/09/23 01:50:23;;;;;;;0.80;0.80;;;23.90;46.70;;;;;;5028154;28;20489;-61
2023/09/23 01:52:48;;;;;;;1.10;1.00;;;23.90;46.70;;;;;;5029135;28;20483;-63
2023/09/23 01:55:16;;;;;;;1.10;1.00;;;23.90;46.70;;;;;;5029295;28;20522;-63
2023/09/23 01:57:42;;;;;;;1.13;1.03;;;23.90;46.70;;;;;;5029063;28;20739;-61
2023/09/23 02:00:11;;;;;;;1.10;1.00;;;23.90;46.70;;;;;;5023663;28;20471;-65
2023/09/23 02:02:39;;;;;;;1.03;0.90;;;23.90;46.70;;;;;;5027452;28;20478;-63
2023/09/23 02:05:06;;;;;;;1.13;0.90;;;23.90;46.70;;;;;;5028921;28;20463;-62
2023/09/23 02:07:31;;;;;;;0.83;0.83;;;23.90;46.70;;;;;;5026396;28;20508;-62
2023/09/23 02:09:57;;;;;;;1.10;0.90;;;23.90;46.70;;;;;;5028976;28;21330;-63
2023/09/23 02:12:23;;;;;;;0.80;0.80;;;23.90;46.70;;;;;;5026529;28;20226;-65
2023/09/23 02:14:49;;;;;;;0.80;0.80;;;23.90;46.70;;;;;;5026566;28;20244;-64
2023/09/23 02:17:15;;;;;;;1.33;0.80;;;23.90;46.70;;;;;;5027442;28;21203;-63
2023/09/23 02:19:40;;;;;;;0.83;0.83;;;23.90;46.70;;;;;;5028101;28;20266;-66
2023/09/23 02:22:06;;;;;;;1.00;0.90;;;23.90;46.70;;;;;;5025013;28;20836;-61
2023/09/23 02:24:33;;;;;;;1.03;0.90;;;23.90;46.70;;;;;;5029748;28;21239;-62
2023/09/23 02:26:59;;;;;;;0.80;0.80;;;23.90;46.80;;;;;;5026810;28;20221;-60
2023/09/23 02:29:24;;;;;;;0.90;0.90;;;23.90;46.70;;;;;;5026175;28;20475;-63
2023/09/23 02:31:50;;;;;;;1.00;1.00;;;23.90;46.70;;;;;;5024004;28;20222;-60
2023/09/23 02:34:17;;;;;;;1.10;1.00;;;23.90;47.50;;;;;;5023314;28;20222;-61
2023/09/23 02:36:47;;;;;;;1.10;1.00;;;23.90;46.70;;;;;;5026561;28;21176;-63
2023/09/23 02:39:17;;;;;;;2.70;0.80;;;23.90;46.70;;;;;;5027510;28;20470;-64
2023/09/23 02:41:45;;;;;;;0.90;0.90;;;23.90;46.80;;;;;;5027630;28;20463;-67
2023/09/23 02:44:24;;;;;;;0.90;0.90;;;23.90;46.70;;;;;;5028393;28;20497;-61
2023/09/23 02:46:52;;;;;;;0.87;0.87;;;23.90;46.70;;;;;;5023592;28;20474;-61
2023/09/23 02:49:18;;;;;;;1.07;0.97;;;23.90;46.70;;;;;;5026374;28;20492;-60
2023/09/23 02:51:44;;;;;;;0.90;0.90;;;23.90;46.70;;;;;;5026595;28;20468;-66
2023/09/23 02:54:11;;;;;;;0.90;0.90;;;23.90;46.70;;;;;;5027235;28;20661;-63
2023/09/23 02:56:37;;;;;;;0.80;0.80;;;23.90;47.50;;;;;;5025280;28;20502;-67
2023/09/23 02:59:13;;;;;;;0.93;0.93;;;23.90;46.70;;;;;;5025501;28;20468;-68
2023/09/23 03:01:48;;;;;;;1.00;0.90;;;23.90;46.70;;;;;;5025044;28;20835;-60
2023/09/23 03:04:18;;;;;;;1.00;0.80;;;23.90;46.70;;;;;;5026794;28;20467;-66
2023/09/23 03:06:54;;;;;;;0.90;0.90;;;23.90;46.70;;;;;;5025160;28;20554;-63
2023/09/23 03:09:23;;;;;;;1.00;0.90;;;23.90;46.70;;;;;;5027267;28;20475;-62
2023/09/23 03:11:53;;;;;;;0.90;0.90;;;23.90;46.70;;;;;;5028525;28;20467;-62
2023/09/23 03:14:35;;;;;;;1.20;1.10;;;23.90;46.70;;;;;;5026088;28;20482;-63
2023/09/23 03:17:01;;;;;;;1.00;0.90;;;23.90;46.70;;;;;;5026952;28;20809;-62
2023/09/23 03:19:27;;;;;;;0.80;0.80;;;23.90;46.70;;;;;;5025637;28;20466;-63
2023/09/23 03:21:56;;;;;;;0.93;0.93;;;23.90;46.70;;;;;;5026203;28;20528;-61
2023/09/23 03:24:25;;;;;;;1.20;1.10;;;23.90;46.80;;;;;;5027259;28;20226;-66
2023/09/23 03:26:58;;;;;;;0.90;0.90;;;23.90;46.70;;;;;;5027071;28;20470;-64
2023/09/23 03:29:32;;;;;;;0.70;0.70;;;23.80;46.70;;;;;;5025711;28;20494;-65
2023/09/23 03:31:58;;;;;;;0.87;0.87;;;23.80;46.70;;;;;;5028311;28;20498;-61
2023/09/23 03:34:26;;;;;;;0.90;0.90;;;23.90;46.70;;;;;;5025447;28;20463;-62
2023/09/23 03:36:53;;;;;;;0.83;0.83;;;23.90;46.70;;;;;;5025102;28;20455;-60
2023/09/23 03:39:19;;;;;;;1.00;0.90;;;23.90;46.70;;;;;;5028057;28;20470;-63
2023/09/23 03:41:46;;;;;;;0.90;0.80;;;23.90;46.80;;;;;;5025700;28;20468;-63
2023/09/23 03:44:16;;;;;;;1.10;1.00;;;23.90;46.70;;;;;;5025399;28;20673;-63
2023/09/23 03:46:50;;;;;;;0.80;0.80;;;23.90;46.70;;;;;;5025384;28;20702;-65
2023/09/23 03:49:15;;;;;;;1.00;1.00;;;23.90;46.70;;;;;;5027091;28;20505;-64
2023/09/23 03:51:41;;;;;;;0.70;0.70;;;23.90;46.70;;;;;;5024334;28;20845;-63
2023/09/23 03:54:07;;;;;;;0.80;0.70;;;23.90;46.70;;;;;;5025653;28;21279;-60
2023/09/23 03:56:33;;;;;;;1.13;1.00;;;23.80;46.60;;;;;;5023264;28;20214;-60
2023/09/23 03:59:05;;;;;;;0.90;0.90;;;23.90;46.70;;;;;;5025915;28;20235;-63
2023/09/23 04:01:31;;;;;;;0.80;0.80;;;23.80;46.60;;;;;;5024818;28;20487;-63
2023/09/23 04:03:57;;;;;;;1.00;1.00;;;23.90;46.80;;;;;;5026235;28;20470;-69
2023/09/23 04:06:23;;;;;;;0.83;0.80;;;23.80;46.70;;;;;;5007745;28;20465;-60
2023/09/23 04:08:49;;;;;;;0.73;0.73;;;23.80;46.60;;;;;;5024125;28;20210;-62
2023/09/23 04:11:15;;;;;;;0.80;0.80;;;23.80;46.70;;;;;;5027719;28;20464;-70
2023/09/23 04:13:44;;;;;;;0.80;0.77;;;23.80;46.70;;;;;;5026019;28;20210;-61
2023/09/23 04:16:11;;;;;;;0.70;0.70;;;23.80;46.70;;;;;;5025677;28;20447;-65
2023/09/23 04:18:37;;;;;;;1.13;1.03;;;23.80;46.70;;;;;;5029654;28;20593;-65
2023/09/23 04:21:03;;;;;;;0.80;0.80;;;23.80;46.70;;;;;;5028810;28;20551;-61
2023/09/23 04:23:29;;;;;;;0.97;0.93;;;23.90;46.80;;;;;;5030883;28;20541;-64
2023/09/23 04:25:55;;;;;;;0.97;0.83;;;23.80;46.70;;;;;;5031767;28;20455;-65
2023/09/23 04:28:20;;;;;;;0.70;0.70;;;23.80;46.70;;;;;;5028081;28;20478;-67
2023/09/23 04:30:46;;;;;;;0.67;0.67;;;23.80;46.70;;;;;;5026349;28;20230;-65
2023/09/23 04:33:12;;;;;;;0.83;0.83;;;23.80;46.70;;;;;;5028849;28;20245;-65
2023/09/23 04:35:38;;;;;;;0.90;0.90;;;23.90;46.70;;;;;;5029616;28;20245;-63
2023/09/23 04:38:04;;;;;;;0.80;0.80;;;23.80;46.70;;;;;;5031157;28;20481;-65
2023/09/23 04:40:30;;;;;;;0.80;0.80;;;23.80;46.70;;;;;;5026758;28;20478;-65
2023/09/23 04:42:55;;;;;;;0.80;0.70;;;23.80;46.60;;;;;;5031116;28;20215;-64
2023/09/23 04:45:21;;;;;;;0.80;0.80;;;23.80;46.60;;;;;;5028044;28;20271;-62
2023/09/23 04:47:50;;;;;;;0.90;0.83;;;23.80;46.60;;;;;;5013240;28;20256;-64
2023/09/23 04:50:17;;;;;;;0.73;0.73;;;23.80;46.60;;;;;;5029209;28;20264;-63
2023/09/23 04:52:44;;;;;;;1.10;1.00;;;23.90;46.60;;;;;;5030716;28;22240;-64
2023/09/23 04:55:10;;;;;;;0.80;0.80;;;23.80;46.60;;;;;;5028027;28;20520;-66
2023/09/23 04:57:36;;;;;;;0.80;0.80;;;23.80;46.60;;;;;;5027297;28;20543;-63
2023/09/23 05:00:03;;;;;;;0.70;0.70;;;23.90;46.60;;;;;;5028256;28;20267;-67
2023/09/23 05:02:29;;;;;;;0.80;0.70;;;23.90;46.60;;;;;;5028618;28;20466;-67
2023/09/23 05:04:55;;;;;;;0.80;0.60;;;23.80;46.60;;;;;;5027987;28;20472;-65
2023/09/23 05:07:21;;;;;;;1.03;0.90;;;23.80;46.60;;;;;;5027864;28;20254;-68
2023/09/23 05:09:47;;;;;;;0.87;0.87;;;23.90;46.60;;;;;;5027128;28;20240;-63
2023/09/23 05:12:14;;;;;;;0.73;0.73;;;23.90;46.60;;;;;;5025060;28;20467;-62
2023/09/23 05:14:40;;;;;;;0.70;0.70;;;23.90;46.60;;;;;;5024242;28;20232;-71
2023/09/23 05:17:05;;;;;;;0.70;0.70;;;23.90;46.60;;;;;;5029068;28;20801;-64
2023/09/23 05:19:34;;;;;;;0.80;0.73;;;23.90;46.50;;;;;;5025379;28;20214;-65
2023/09/23 05:22:01;;;;;;;0.70;0.70;;;23.90;46.50;;;;;;5027963;28;20272;-60
2023/09/23 05:24:27;;;;;;;0.70;0.70;;;23.90;46.50;;;;;;5029062;28;20474;-67
2023/09/23 05:26:56;;;;;;;0.73;0.73;;;23.90;46.50;;;;;;5026913;28;20562;-60
2023/09/23 05:29:22;;;;;;;0.87;0.87;;;23.90;46.50;;;;;;5026520;28;21382;-63
2023/09/23 05:31:48;;;;;;;0.63;0.60;;;23.90;46.50;;;;;;5024825;28;20477;-68
2023/09/23 05:34:15;;;;;;;0.70;0.70;;;23.90;46.50;;;;;;5025866;28;20474;-70
2023/09/23 05:36:41;;;;;;;0.93;0.90;;;23.90;46.50;;;;;;5026005;28;20510;-68
2023/09/23 05:39:06;;;;;;;0.80;0.77;;;23.90;46.40;;;;;;5028517;28;21270;-61
2023/09/23 05:41:32;;;;;;;0.80;0.80;;;23.90;46.40;;;;;;5027062;28;20230;-62
2023/09/23 05:43:59;;;;;;;0.70;0.70;;;23.90;46.50;;;;;;5025762;28;20245;-63
2023/09/23 05:46:25;;;;;;;0.70;0.70;;;23.90;46.40;;;;;;5024694;28;20463;-66
2023/09/23 05:48:51;;;;;;;0.70;0.70;;;23.90;46.40;;;;;;5031348;28;20798;-61
2023/09/23 05:51:16;;;;;;;0.70;0.70;;;23.90;46.40;;;;;;5025920;28;20244;-61
2023/09/23 05:53:42;;;;;;;0.93;0.70;;;23.90;46.40;;;;;;5011852;28;20222;-64
2023/09/23 05:56:08;;;;;;;0.80;0.80;;;23.90;46.40;;;;;;5027443;28;20228;-61
2023/09/23 05:58:34;;;;;;;0.80;0.63;;;23.90;46.30;;;;;;5023548;28;20961;-64
2023/09/23 06:01:00;;;;;;;1.63;0.90;;;23.90;46.40;;;;;;5028427;28;20230;-67
2023/09/23 06:03:25;;;;;;;0.70;0.60;;;23.90;46.30;;;;;;5028843;28;20568;-62
2023/09/23 06:05:51;;;;;;;0.87;0.70;;;23.90;46.30;;;;;;5026513;28;20305;-62
2023/09/23 06:08:16;;;;;;;0.60;0.60;;;23.90;46.30;;;;;;5027939;28;20701;-62
2023/09/23 06:10:42;;;;;;;0.70;0.70;;;23.90;46.30;;;;;;5028873;28;20240;-63
2023/09/23 06:13:09;;;;;;;1.00;0.80;;;23.90;46.30;;;;;;5025716;28;20218;-59
2023/09/23 06:15:35;;;;;;;0.70;0.70;;;23.90;46.30;;;;;;5027894;28;20356;-66
2023/09/23 06:18:01;;;;;;;0.80;0.77;;;23.90;46.30;;;;;;5023197;28;20458;-67
2023/09/23 06:20:26;;;;;;;0.80;0.80;;;23.90;46.20;;;;;;5024713;28;20221;-62
2023/09/23 06:22:52;;;;;;;0.87;0.87;;;23.90;46.30;;;;;;5030776;28;22019;-62
2023/09/23 06:25:17;;;;;;;0.70;0.70;;;23.90;46.30;;;;;;5027288;28;20233;-64
2023/09/23 06:27:43;;;;;;;0.63;0.60;;;23.90;46.20;;;;;;5021912;28;20567;-65
2023/09/23 06:30:09;;;;;;;0.70;0.70;;;23.90;46.30;;;;;;5024456;28;22711;-60
2023/09/23 06:32:35;;;;;;;0.70;0.70;;;23.90;46.30;;;;;;5026819;28;20219;-62
2023/09/23 06:35:02;;;;;;;0.80;0.80;;;23.90;46.30;;;;;;5021842;28;20506;-63
2023/09/23 06:37:27;;;;;;;0.87;0.87;;;23.90;46.30;;;;;;5026514;28;20250;-71
2023/09/23 06:39:53;;;;;;;1.10;0.70;;;23.90;46.30;;;;;;5022577;28;21125;-63
2023/09/23 06:42:19;;;;;;;0.80;0.70;;;23.90;46.30;;;;;;5025545;28;21279;-75
2023/09/23 06:44:45;;;;;;;0.70;0.60;;;23.90;46.30;;;;;;5025881;28;20236;-61
2023/09/23 06:47:10;;;;;;;0.70;0.70;;;23.90;46.30;;;;;;5017539;28;20670;-63
2023/09/23 06:49:36;;;;;;;0.70;0.70;;;23.90;46.30;;;;;;5023110;28;20487;-62
2023/09/23 06:52:02;;;;;;;0.80;0.80;;;23.90;46.30;;;;;;5021235;28;20338;-63
2023/09/23 06:54:27;;;;;;;0.73;0.73;;;23.90;46.30;;;;;;5022852;28;20356;-66
2023/09/23 06:56:54;;;;;;;0.70;0.60;;;23.90;46.30;;;;;;5025250;28;20230;-63
2023/09/23 06:59:20;;;;;;;0.97;0.80;;;23.90;46.30;;;;;;5025329;28;20225;-63
2023/09/23 07:01:46;;;;;;;0.90;0.90;;;23.90;46.20;;;;;;5017628;28;20481;-64
2023/09/23 07:04:11;;;;;;;0.80;0.80;;;23.90;46.30;;;;;;5018077;28;20363;-61
2023/09/23 07:06:37;;;;;;;0.90;0.80;;;23.90;46.30;;;;;;5025158;28;20222;-71
2023/09/23 07:09:05;;;;;;;0.97;0.97;;;23.90;46.20;;;;;;5028855;28;20218;-63
2023/09/23 07:11:31;;;;;;;0.80;0.77;;;23.90;46.20;;;;;;5028224;28;20225;-62
2023/09/23 07:13:58;;;;;;;0.60;0.60;;;23.90;46.20;;;;;;5028448;28;20487;-61
2023/09/23 07:16:24;;;;;;;1.63;0.90;;;23.90;46.20;;;;;;5028507;28;20490;-60
2023/09/23 07:18:50;;;;;;;1.53;0.70;;;23.90;46.20;;;;;;5027030;28;20460;-68
2023/09/23 07:21:16;;;;;;;0.90;0.90;;;23.90;46.20;;;;;;5029046;28;20473;-67
2023/09/23 07:23:42;;;;;;;1.17;0.73;;;23.90;46.20;;;;;;5019969;28;20467;-62
2023/09/23 07:26:07;;;;;;;0.90;0.70;;;23.90;46.20;;;;;;5023870;28;20230;-60
2023/09/23 07:28:33;;;;;;;1.07;0.73;;;23.90;46.20;;;;;;5023609;28;20294;-64
2023/09/23 07:30:59;;;;;;;0.80;0.70;;;23.90;46.30;;;;;;5026473;28;20237;-60
2023/09/23 07:33:24;;;;;;;1.30;0.80;;;23.90;46.20;;;;;;5022950;28;20324;-60
2023/09/23 07:35:50;;;;;;;0.90;0.70;;;23.90;46.20;;;;;;5026379;28;20274;-64
2023/09/23 07:38:15;;;;;;;0.70;0.60;;;23.90;46.20;;;;;;5025789;28;20233;-62
2023/09/23 07:40:41;;;;;;;0.70;0.70;;;23.90;46.10;;;;;;5024955;28;20222;-59
2023/09/23 07:43:07;;;;;;;1.93;1.10;;;23.90;46.10;;;;;;5025485;28;20222;-69
2023/09/23 07:45:33;;;;;;;0.83;0.60;;;23.90;46.10;;;;;;5024925;28;20254;-64
2023/09/23 07:47:58;;;;;;;1.00;0.90;;;23.90;46.10;;;;;;5026274;28;20242;-63
2023/09/23 07:50:24;;;;;;;0.87;0.80;;;23.90;46.10;;;;;;5025784;28;20599;-61
2023/09/23 07:52:49;;;;;;;1.00;0.70;;;23.90;46.10;;;;;;5023394;28;20305;-71
2023/09/23 07:55:15;;;;;;;1.17;0.80;;;23.90;46.10;;;;;;5026289;28;20243;-68
2023/09/23 07:57:41;;;;;;;0.90;0.80;;;24.00;46.10;;;;;;5027355;28;20214;-62
2023/09/23 08:00:09;;;;;;;0.80;0.80;;;23.90;46.10;;;;;;5026713;28;20800;-59
2023/09/23 08:02:35;;;;;;;0.97;0.73;;;23.90;46.10;;;;;;5027375;28;20309;-60
2023/09/23 08:05:05;;;;;;;0.90;0.70;;;23.90;46.00;;;;;;5026617;28;20454;-62
2023/09/23 08:07:32;;;;;;;0.77;0.77;;;23.90;46.00;;;;;;5025608;28;21163;-69
2023/09/23 08:09:58;;;;;;;0.70;0.70;;;23.90;46.00;;;;;;5026317;28;20565;-63
2023/09/23 08:12:24;;;;;;;0.77;0.70;;;23.90;46.00;;;;;;5023581;28;20463;-65
2023/09/23 08:14:50;;;;;;;0.90;0.70;;;23.90;46.00;;;;;;5027300;28;20642;-62
2023/09/23 08:17:17;;;;;;;0.80;0.80;;;23.90;46.00;;;;;;5027094;28;20233;-66
2023/09/23 08:19:44;;;;;;;1.20;1.10;;;23.90;46.00;;;;;;5026445;28;20453;-62
2023/09/23 08:22:09;;;;;;;1.00;0.80;;;24.00;46.00;;;;;;5029130;28;20534;-61
2023/09/23 08:24:35;;;;;;;1.10;0.80;;;23.90;45.80;;;;;;5025109;28;20576;-59
2023/09/23 08:27:03;;;;;;;1.00;0.90;;;23.90;45.70;;;;;;5029237;28;20226;-63
2023/09/23 08:29:29;;;;;;;3.10;1.13;;;23.90;45.60;;;;;;5023214;28;20240;-63
2023/09/23 08:31:55;;;;;;;0.80;0.80;;;23.90;45.60;;;;;;5022914;28;21296;-70
2023/09/23 08:34:21;;;;;;;1.53;0.90;;;23.90;45.50;;;;;;5023841;28;20501;-67
2023/09/23 08:36:46;;;;;;;1.53;1.03;;;23.90;45.40;;;;;;5024202;28;20217;-64
2023/09/23 08:39:12;;;;;;;1.00;0.80;;;23.90;46.10;;;;;;5013242;28;20372;-69
2023/09/23 08:41:38;;;;;;;1.00;0.90;;;23.90;45.20;;;;;;5013111;28;20303;-59
2023/09/23 08:44:07;;;;;;;1.23;0.90;;;23.90;45.20;;;;;;5007707;28;22167;-59
2023/09/23 08:46:33;;;;;;;2.40;0.80;;;23.90;45.10;;;;;;5019648;28;20974;-63
2023/09/23 08:48:59;;;;;;;0.80;0.77;;;23.90;45.10;;;;;;5018494;28;20470;-67
2023/09/23 08:51:27;;;;;;;1.00;0.90;;;23.90;45.00;;;;;;5019692;28;21157;-64
2023/09/23 08:53:54;;;;;;;1.27;1.17;;;23.90;45.00;;;;;;5024526;28;20813;-64
2023/09/23 08:56:20;;;;;;;1.13;1.03;;;23.90;44.90;;;;;;5024062;28;20464;-67
2023/09/23 08:58:48;;;;;;;1.23;1.10;;;23.90;44.80;;;;;;5021024;28;20460;-61
2023/09/23 09:01:14;;;;;;;1.27;0.90;;;23.90;44.80;;;;;;5020409;28;20466;-67
2023/09/23 09:03:39;;;;;;;0.80;0.80;;;23.90;44.70;;;;;;5024305;28;20547;-70
2023/09/23 09:06:18;;;;;;;1.00;0.90;;;23.90;44.70;;;;;;5024156;28;20466;-61
2023/09/23 09:08:44;;;;;;;0.70;0.70;;;23.90;44.60;;;;;;5028548;28;20222;-64
2023/09/23 09:11:10;;;;;;;1.00;0.80;;;23.90;44.60;;;;;;5028903;28;20523;-59
2023/09/23 09:13:36;;;;;;;0.97;0.87;;;23.90;44.50;;;;;;5027257;28;20467;-60
2023/09/23 09:16:06;;;;;;;1.13;0.90;;;23.90;44.40;;;;;;5025042;28;20230;-65
2023/09/23 09:18:32;;;;;;;1.17;1.07;;;23.90;44.50;;;;;;5027862;28;22573;-63
2023/09/23 09:20:58;;;;;;;1.30;0.90;;;23.90;44.40;;;;;;5027100;28;20966;-63
2023/09/23 09:23:29;;;;;;;0.93;0.93;;;23.90;44.40;;;;;;5029419;28;20463;-60
2023/09/23 09:25:55;;;;;;;1.07;0.90;;;23.90;44.30;;;;;;5024335;28;21003;-65
2023/09/23 09:28:21;;;;;;;0.80;0.80;;;23.90;44.30;;;;;;5028245;28;21212;-62
2023/09/23 09:30:56;;;;;;;1.17;1.07;;;23.90;44.20;;;;;;5025910;28;20631;-63
2023/09/23 09:33:26;;;;;;;0.87;0.87;;;23.90;44.20;;;;;;5027395;28;20542;-65
2023/09/23 09:35:55;;;;;;;1.10;0.80;;;23.90;44.20;;;;;;5025526;28;20463;-60
2023/09/23 09:38:25;;;;;;;1.20;1.03;;;23.90;44.10;;;;;;5029986;28;20466;-61
2023/09/23 09:41:00;;;;;;;1.30;0.90;;;23.80;44.00;;;;;;5028075;28;21025;-62
2023/09/23 09:43:26;;;;;;;1.33;0.87;;;23.80;44.00;;;;;;5024631;28;20458;-62
2023/09/23 09:45:54;;;;;;;0.80;0.80;;;23.80;44.00;;;;;;5011169;28;20479;-66
2023/09/23 09:48:22;;;;;;;1.07;0.87;;;23.90;44.00;;;;;;5026421;28;20483;-63
2023/09/23 09:50:50;;;;;;;1.10;1.00;;;23.80;43.90;;;;;;5025947;28;20594;-61
2023/09/23 09:53:18;;;;;;;1.80;1.00;;;23.80;43.90;;;;;;5028210;28;20455;-65
2023/09/23 09:55:44;;;;;;;1.10;1.00;;;23.90;44.00;;;;;;5027014;28;20554;-61
2023/09/23 09:58:11;;;;;;;1.20;1.10;;;23.90;44.00;;;;;;5027761;28;20471;-62
2023/09/23 10:00:43;;;;;;;1.00;0.90;;;23.80;43.80;;;;;;5021850;28;20485;-62
2023/09/23 10:03:11;;;;;;;1.10;1.00;;;23.90;43.90;;;;;;5022219;28;20454;-61
2023/09/23 10:05:46;;;;;;;1.00;0.90;;;23.80;43.80;;;;;;5015964;28;20474;-69
2023/09/23 10:08:19;;;;;;;1.43;1.33;;;23.90;43.80;;;;;;5024670;28;20463;-66
2023/09/23 10:10:49;;;;;;;1.17;1.07;;;23.80;43.70;;;;;;4982070;28;20482;-65
2023/09/23 10:13:18;;;;;;;1.10;1.00;;;23.80;43.80;;;;;;5003431;28;20475;-67
2023/09/23 10:15:44;;;;;;;1.23;1.10;;;23.80;43.70;;;;;;5000698;28;22304;-64
2023/09/23 10:18:20;;;;;;;1.00;0.90;;;23.80;43.70;;;;;;4999469;28;20814;-67
2023/09/23 10:20:49;;;;;;;1.17;1.07;;;23.90;43.70;;;;;;5005597;28;20476;-65
2023/09/23 10:23:17;;;;;;;1.30;1.20;;;23.80;43.60;;;;;;5003422;28;20530;-65
2023/09/23 10:25:43;;;;;;;1.37;1.00;;;23.80;43.60;;;;;;5004536;28;20468;-62
2023/09/23 10:28:23;;;;;;;1.30;1.20;;;23.80;43.60;;;;;;4998314;28;20561;-67
2023/09/23 10:31:00;;;;;;;1.10;1.00;;;23.80;43.50;;;;;;5005380;28;20561;-61
2023/09/23 10:33:27;;;;;;;1.07;0.97;;;23.80;43.50;;;;;;5006450;28;20479;-63
2023/09/23 10:35:53;;;;;;;0.80;0.80;;;23.80;43.50;;;;;;5007403;28;20968;-61
2023/09/23 10:38:26;;;;;;;1.10;1.00;;;23.80;43.50;;;;;;5009874;28;20491;-62
2023/09/23 10:40:53;;;;;;;1.43;1.07;;;23.80;43.50;;;;;;5004433;28;20471;-60
2023/09/23 10:43:22;;;;;;;1.10;1.00;;;23.80;43.50;;;;;;5009835;28;20496;-59
2023/09/23 10:45:48;;;;;;;0.93;0.93;;;23.80;43.50;;;;;;5002657;28;20513;-59
2023/09/23 10:48:16;;;;;;;1.40;1.03;;;23.80;43.50;;;;;;5011035;28;20776;-60
2023/09/23 10:50:42;;;;;;;0.87;0.87;;;23.80;43.40;;;;;;5009774;28;20527;-59
2023/09/23 10:53:08;;;;;;;0.90;0.90;;;23.80;43.50;;;;;;5009324;28;20476;-60
2023/09/23 10:55:34;;;;;;;1.10;1.00;;;23.80;43.40;;;;;;5008954;28;20492;-63
2023/09/23 10:58:00;;;;;;;1.10;1.00;;;23.80;43.40;;;;;;5006500;28;20773;-64
2023/09/23 11:00:28;;;;;;;1.10;1.00;;;23.80;43.30;;;;;;5002745;28;20264;-58
2023/09/23 11:02:54;;;;;;;1.00;1.00;;;23.80;44.10;;;;;;5006566;28;20472;-59
2023/09/23 11:05:22;;;;;;;1.07;1.00;;;23.80;43.30;;;;;;5005891;28;20455;-59
2023/09/23 11:07:48;;;;;;;1.23;1.13;;;23.80;43.20;;;;;;5007320;28;20944;-60
2023/09/23 11:10:14;;;;;;;1.33;1.03;;;23.80;43.30;;;;;;5006560;28;20464;-61
2023/09/23 11:12:46;;;;;;;1.63;0.93;;;23.80;43.30;;;;;;5009519;28;20534;-59
2023/09/23 11:15:13;;;;;;;1.83;1.00;;;23.80;43.30;;;;;;5005554;28;20237;-63
2023/09/23 11:17:40;;;;;;;1.20;1.10;;;23.80;43.30;;;;;;5006713;28;20471;-58
2023/09/23 11:20:09;;;;;;;1.30;1.00;;;23.80;43.20;;;;;;5009137;28;20462;-60
2023/09/23 11:22:37;;;;;;;0.90;0.90;;;23.80;43.30;;;;;;5003890;28;23470;-60
2023/09/23 11:25:09;;;;;;;1.17;1.07;;;23.80;43.20;;;;;;5008334;28;20463;-59
2023/09/23 11:27:35;;;;;;;1.93;1.00;;;23.80;43.30;;;;;;5004750;28;20472;-59
2023/09/23 11:30:03;;;;;;;0.90;0.90;;;23.80;43.20;;;;;;5006016;28;20534;-58
2023/09/23 11:32:28;;;;;;;1.20;1.10;;;23.80;43.20;;;;;;5005443;28;20473;-58
2023/09/23 11:34:54;;;;;;;1.10;1.00;;;23.80;43.20;;;;;;5005439;28;20468;-59
2023/09/23 11:37:22;;;;;;;1.10;1.00;;;23.80;43.20;;;;;;5005090;28;20222;-60
2023/09/23 11:39:47;;;;;;;1.10;1.00;;;23.80;43.20;;;;;;5006973;28;20465;-60
2023/09/23 11:42:13;;;;;;;1.03;0.93;;;23.80;44.00;;;;;;5006387;28;20453;-60
2023/09/23 11:44:38;;;;;;;1.20;0.90;;;23.80;43.30;;;;;;5008335;28;20670;-59
2023/09/23 11:47:04;;;;;;;1.10;1.00;;;23.80;43.30;;;;;;5006327;28;20769;-58
2023/09/23 11:49:30;;;;;;;1.00;1.00;;;23.80;43.30;;;;;;5006289;28;20223;-59
2023/09/23 11:51:56;;;;;;;1.17;1.07;;;23.80;43.40;;;;;;5003049;28;20490;-60
2023/09/23 11:54:21;;;;;;;1.10;1.00;;;23.80;43.30;;;;;;5007842;28;20222;-59
2023/09/23 11:56:47;;;;;;;1.10;1.10;;;23.80;43.30;;;;;;5005277;28;20750;-60
2023/09/23 11:59:14;;;;;;;1.17;1.07;;;23.80;43.40;;;;;;5005668;28;22166;-61
2023/09/23 12:01:40;;;;;;;1.10;1.00;;;23.80;43.30;;;;;;5004662;28;20335;-61
2023/09/23 12:04:05;;;;;;;1.67;1.20;;;23.80;43.30;;;;;;5005556;28;20550;-63
2023/09/23 12:06:35;;;;;;;1.00;0.90;;;23.80;43.40;;;;;;5006289;28;20218;-59
2023/09/23 12:09:02;;;;;;;1.10;1.00;;;23.80;43.40;;;;;;5007303;28;20242;-60
2023/09/23 12:11:28;;;;;;;0.90;0.90;;;23.80;43.30;;;;;;5003737;28;20549;-63
2023/09/23 12:13:53;;;;;;;1.10;1.00;;;23.80;43.20;;;;;;5004495;28;20951;-64
2023/09/23 12:16:19;;;;;;;1.20;1.10;;;23.80;43.20;;;;;;5006631;28;20635;-63
2023/09/23 12:18:47;;;;;;;1.13;1.03;;;23.80;43.20;;;;;;5004437;28;20273;-60
2023/09/23 12:21:13;;;;;;;1.17;1.07;;;23.80;43.20;;;;;;5002556;28;20229;-59
2023/09/23 12:23:40;;;;;;;1.00;1.00;;;23.80;43.20;;;;;;5002500;28;20457;-61
2023/09/23 12:26:06;;;;;;;1.10;1.00;;;23.80;43.20;;;;;;5003228;28;20215;-61
2023/09/23 12:28:32;;;;;;;1.20;1.10;;;23.80;43.20;;;;;;5001234;28;20475;-60
2023/09/23 12:30:57;;;;;;;1.00;1.00;;;23.80;43.20;;;;;;5002779;28;20227;-63
2023/09/23 12:33:23;;;;;;;1.20;0.97;;;23.80;43.20;;;;;;5003667;28;23301;-60
2023/09/23 12:35:48;;;;;;;1.10;1.00;;;23.80;43.20;;;;;;5000683;28;20729;-61
2023/09/23 12:38:14;;;;;;;1.23;1.13;;;23.80;43.20;;;;;;4991208;28;20652;-60
2023/09/23 12:40:39;;;;;;;1.10;1.00;;;23.80;43.20;;;;;;5004925;28;20266;-59
2023/09/23 12:43:05;;;;;;;1.57;1.23;;;23.80;43.10;;;;;;4990123;28;20218;-62
2023/09/23 12:45:31;;;;;;;1.10;0.90;;;23.80;43.20;;;;;;5008246;28;20234;-61